Data for 02/09/2006

Time Sea-Level Adjusted Pressure Absolute Pressure Temperature Relative Humidity Dew Point   
(mb) (inHg) (mb) (inHg) (C) (F) (%) (C) (F)
00:05 1020 30.12 849 25.07 4.8 40.7 44 -6.4 20.4
00:10 1020 30.12 849 25.07 4.8 40.6 46 -6 21.3
00:15 1020 30.12 849 25.07 4.8 40.7 46 -5.8 21.6
00:20 1020 30.12 849 25.07 4.9 40.8 47 -5.6 21.9
00:25 1020 30.12 849 25.07 4.8 40.7 47 -5.4 22.3
00:30 1020 30.12 849 25.07 4.6 40.3 49 -5.3 22.4
00:35 1020 30.12 849 25.07 4.6 40.3 50 -5 22.9
00:40 1020 30.12 849 25.07 4.4 39.9 51 -4.9 23.1
00:45 1020 30.12 849 25.07 4.4 39.9 51 -4.8 23.4
00:50 1020 30.12 849 25.07 4.6 40.2 52 -4.6 23.8
00:55 1020 30.12 849 25.07 4.7 40.5 52 -4.4 24.1
01:00 1020 30.12 849 25.07 4.8 40.7 51 -4.3 24.2
01:05 1020 30.12 849 25.07 4.8 40.6 52 -4.3 24.3
01:10 1020 30.12 849 25.07 4.8 40.6 52 -4.2 24.4
01:15 1020 30.12 849 25.07 4.7 40.4 53 -4 24.7
01:20 1020 30.12 849 25.07 4.6 40.2 54 -4.1 24.7
01:25 1020 30.12 849 25.07 4.4 39.9 55 -4 24.9
01:30 1020 30.12 849 25.07 4.4 39.9 56 -3.7 25.4
01:35 1020 30.12 849 25.07 4.3 39.7 56 -3.6 25.5
01:40 1020 30.12 849 25.07 4.2 39.6 57 -3.5 25.7
01:45 1020 30.12 849 25.07 4 39.2 59 -3.3 26
01:50 1020 30.12 849 25.07 3.9 38.9 62 -2.8 26.9
01:55 1020 30.12 850 25.1 3.7 38.6 64 -2.5 27.4
02:00 1021 30.15 850 25.1 3.4 38.2 66 -2.4 27.7
02:05 1021 30.15 850 25.1 3.2 37.8 67 -2.4 27.7
02:10 1021 30.15 850 25.1 3.1 37.6 67 -2.4 27.6
02:15 1021 30.15 850 25.1 2.9 37.3 67 -2.6 27.4
02:20 1021 30.15 850 25.1 2.7 36.9 66 -3 26.6
02:25 1021 30.15 850 25.1 2.7 36.8 65 -3.2 26.2
02:30 1021 30.15 850 25.1 2.7 36.9 65 -3.2 26.2
02:35 1021 30.15 850 25.1 2.7 36.8 65 -3.2 26.2
02:40 1021 30.15 850 25.1 2.8 37 65 -3.2 26.2
02:45 1021 30.15 850 25.1 2.7 36.9 65 -3.2 26.2
02:50 1021 30.15 850 25.1 2.8 37 64 -3.3 26.1
02:55 1021 30.15 850 25.1 2.8 37 64 -3.3 26
03:00 1021 30.15 850 25.1 2.7 36.9 64 -3.5 25.7
03:05 1021 30.15 850 25.1 2.6 36.7 64 -3.6 25.6
03:10 1021 30.15 850 25.1 2.5 36.5 63 -3.8 25.1
03:15 1021 30.15 851 25.13 2.6 36.6 62 -3.9 25
03:20 1021 30.15 851 25.13 2.6 36.6 63 -3.8 25.1
03:25 1022 30.18 851 25.13 2.5 36.4 63 -3.8 25.2
03:30 1022 30.18 851 25.13 2.4 36.4 63 -3.8 25.1
03:35 1022 30.18 851 25.13 2.4 36.3 63 -3.9 25
03:40 1022 30.18 851 25.13 2.4 36.3 64 -3.8 25.2
03:45 1022 30.18 851 25.13 2.3 36.2 64 -3.7 25.3
03:50 1022 30.18 851 25.13 2.3 36.1 64 -3.8 25.2
03:55 1022 30.18 851 25.13 2.3 36.1 65 -3.7 25.3
04:00 1022 30.18 852 25.16 2.2 36 64 -3.9 25
04:05 1022 30.18 852 25.16 2.2 35.9 65 -3.8 25.2
04:10 1022 30.18 852 25.16 2.2 35.9 64 -3.9 25
04:15 1022 30.18 852 25.16 2.2 35.9 64 -4 24.8
04:20 1023 30.21 852 25.16 2.1 35.8 63 -4.2 24.4
04:25 1023 30.21 852 25.16 2 35.6 62 -4.5 23.9
04:30 1023 30.21 852 25.16 2 35.5 62 -4.5 23.9
04:35 1023 30.21 852 25.16 1.8 35.2 63 -4.6 23.8
04:40 1023 30.21 852 25.16 1.5 34.7 64 -4.5 23.9
04:45 1023 30.21 852 25.16 1.3 34.3 66 -4.4 24.1
04:50 1023 30.21 852 25.16 1.2 34.1 65 -4.7 23.6
04:55 1023 30.21 852 25.16 1 33.9 66 -4.7 23.6
05:00 1023 30.21 852 25.16 1 33.8 66 -4.6 23.6
05:05 1023 30.21 852 25.16 0.9 33.6 66 -4.7 23.5
05:10 1023 30.21 852 25.16 0.8 33.5 65 -4.9 23.1
05:15 1023 30.21 852 25.16 0.8 33.4 65 -5.1 22.9
05:20 1023 30.21 852 25.16 0.6 33.2 66 -5 22.9
05:25 1023 30.21 852 25.16 0.5 32.9 65 -5.2 22.6
05:30 1023 30.21 853 25.19 0.4 32.7 66 -5.2 22.6
05:35 1024 30.24 853 25.19 0.3 32.5 67 -5.2 22.6
05:40 1024 30.24 853 25.19 0.3 32.5 64 -5.8 21.6
05:45 1024 30.24 853 25.19 0.2 32.4 63 -6 21.3
05:50 1024 30.24 853 25.19 0.2 32.3 63 -6 21.2
05:55 1024 30.24 853 25.19 0.1 32.2 64 -6 21.2
06:00 1024 30.24 853 25.19 0.1 32.1 64 -5.9 21.3
06:05 1024 30.24 853 25.19 -0.1 31.9 66 -5.7 21.7
06:10 1024 30.24 853 25.19 -0.1 31.8 66 -5.8 21.5
06:15 1024 30.24 853 25.19 -0.1 31.7 66 -5.7 21.8
06:20 1024 30.24 853 25.19 -0.1 31.8 66 -5.8 21.5
06:25 1024 30.24 853 25.19 -0.1 31.8 65 -5.9 21.4
06:30 1024 30.24 853 25.19 -0.1 31.8 65 -5.9 21.3
06:35 1024 30.24 853 25.19 -0.1 31.9 65 -5.9 21.4
06:40 1024 30.24 853 25.19 -0 32 65 -5.9 21.3
06:45 1024 30.24 853 25.19 -0 31.9 65 -5.9 21.4
06:50 1024 30.24 853 25.19 -0.1 31.8 65 -6 21.3
06:55 1024 30.24 853 25.19 -0.1 31.8 65 -5.9 21.3
07:00 1024 30.24 853 25.19 -0.1 31.8 65 -6 21.2
07:05 1024 30.24 853 25.19 -0.1 31.7 65 -6 21.3
07:10 1024 30.24 854 25.22 -0.1 31.8 65 -5.9 21.4
07:15 1024 30.24 854 25.22 -0.1 31.9 65 -5.8 21.5
07:20 1024 30.24 854 25.22 -0 32 64 -6 21.2
07:25 1024 30.24 854 25.22 0 32 65 -5.9 21.4
07:30 1025 30.27 854 25.22 -0.1 31.9 67 -5.4 22.2
07:35 1024 30.24 854 25.22 -0.1 31.8 70 -4.9 23.1
07:40 1025 30.27 854 25.22 -0.3 31.5 71 -4.9 23.1
07:45 1025 30.27 854 25.22 -0.5 31.1 72 -5 23.1
07:50 1025 30.27 854 25.22 -0.7 30.7 74 -4.8 23.3
07:55 1025 30.27 854 25.22 -0.8 30.6 74 -4.9 23.2
08:00 1025 30.27 854 25.22 -0.8 30.6 74 -4.9 23.2
08:05 1025 30.27 854 25.22 -0.8 30.6 72 -5.1 22.8
08:10 1025 30.27 854 25.22 -0.7 30.8 73 -5 23.1
08:15 1025 30.27 854 25.22 -0.6 31 70 -5.3 22.5
08:20 1025 30.27 854 25.22 -0.5 31.2 70 -5.3 22.5
08:25 1025 30.27 854 25.22 -0.5 31.1 70 -5.3 22.4
08:30 1025 30.27 855 25.25 -0.5 31.2 69 -5.6 22
08:35 1025 30.27 855 25.25 -0.4 31.2 69 -5.4 22.2
08:40 1025 30.27 855 25.25 -0.4 31.2 66 -6.1 21
08:45 1026 30.3 855 25.25 -0.5 31 64 -6.5 20.3
08:50 1026 30.3 855 25.25 -0.7 30.7 63 -6.8 19.8
08:55 1026 30.3 855 25.25 -0.7 30.8 63 -6.8 19.7
09:00 1026 30.3 855 25.25 -0.7 30.8 63 -6.8 19.8
09:05 1026 30.3 855 25.25 -0.6 30.8 63 -6.9 19.6
09:10 1026 30.3 855 25.25 -0.5 31.1 62 -6.9 19.6
09:15 1026 30.3 855 25.25 -0.5 31.1 62 -6.9 19.6
09:20 1026 30.3 855 25.25 -0.6 30.9 61 -7.2 19
09:25 1026 30.3 855 25.25 -0.4 31.3 61 -7.1 19.2
09:30 1026 30.3 855 25.25 -0.3 31.4 59 -7.3 18.8
09:35 1026 30.3 855 25.25 -0.3 31.5 59 -7.4 18.7
09:40 1026 30.3 855 25.25 -0.1 31.7 59 -7.2 19
09:45 1026 30.3 855 25.25 -0.1 31.8 56 -7.9 17.7
09:50 1026 30.3 855 25.25 -0 32 55 -8 17.6
09:55 1026 30.3 855 25.25 -0 31.9 56 -7.9 17.8
10:00 1026 30.3 855 25.25 -0.1 31.8 57 -7.8 18
10:05 1026 30.3 856 25.28 -0 31.9 57 -7.6 18.3
10:10 1027 30.33 856 25.28 -0 32 58 -7.4 18.8
10:15 1027 30.33 856 25.28 -0.3 31.5 61 -7 19.4
10:20 1027 30.33 856 25.28 -0.3 31.4 62 -6.6 20
10:25 1027 30.33 856 25.28 -0.7 30.8 64 -6.7 19.9
10:30 1027 30.33 856 25.28 -0.9 30.5 65 -6.7 20
10:35 1027 30.33 856 25.28 -0.9 30.3 65 -6.7 19.9
10:40 1027 30.33 856 25.28 -1 30.2 64 -7 19.4
10:45 1027 30.33 856 25.28 -1 30.1 62 -7.3 18.8
10:50 1027 30.33 856 25.28 -1.3 29.7 63 -7.4 18.7
10:55 1027 30.33 856 25.28 -1.4 29.5 64 -7.4 18.6
11:00 1027 30.33 856 25.28 -1.5 29.2 63 -7.6 18.3
11:05 1027 30.33 856 25.28 -1.4 29.5 61 -7.9 17.8
11:10 1027 30.33 856 25.28 -1.3 29.7 59 -8.3 17
11:15 1027 30.33 856 25.28 -1.4 29.6 60 -8.2 17.2
11:20 1027 30.33 856 25.28 -1.7 29 62 -8.1 17.5
11:25 1027 30.33 856 25.28 -1.4 29.5 61 -8 17.6
11:30 1027 30.33 856 25.28 -1.7 29 60 -8.5 16.8
11:35 1027 30.33 856 25.28 -1.6 29.2 53 -9.8 14.3
11:40 1027 30.33 857 25.31 -1.5 29.3 52 -10.2 13.6
11:45 1027 30.33 857 25.31 -1.5 29.4 49 -10.8 12.6
11:50 1027 30.33 857 25.31 -1.5 29.2 48 -11.2 11.8
11:55 1027 30.33 857 25.31 -1.5 29.3 46 -11.8 10.8
12:00 1027 30.33 857 25.31 -1.5 29.4 46 -11.7 11
12:05 1027 30.33 857 25.31 -1.5 29.3 44 -12.3 9.9
12:10 1027 30.33 856 25.28 -1.7 28.9 44 -12.4 9.7
12:15 1027 30.33 856 25.28 -1.8 28.8 43 -12.9 8.8
12:20 1027 30.33 857 25.31 -1.9 28.6 43 -12.9 8.8
12:25 1027 30.33 857 25.31 -1.8 28.8 43 -12.7 9.2
12:30 1027 30.33 857 25.31 -1.9 28.6 43 -12.9 8.7
12:35 1027 30.33 857 25.31 -1.9 28.6 43 -12.8 8.9
12:40 1027 30.33 857 25.31 -1.8 28.7 43 -12.8 9
12:45 1027 30.33 857 25.31 -1.8 28.8 43 -12.7 9.1
12:50 1027 30.33 857 25.31 -1.9 28.7 42 -13.1 8.4
12:55 1027 30.33 857 25.31 -2 28.4 44 -12.7 9.1
13:00 1028 30.36 857 25.31 -1.7 28.9 42 -12.9 8.7
13:05 1028 30.36 857 25.31 -1.6 29.1 42 -13 8.6
13:10 1028 30.36 857 25.31 -1.7 29 40 -13.6 7.6
13:15 1028 30.36 857 25.31 -1.8 28.7 42 -13 8.5
13:20 1028 30.36 857 25.31 -1.7 29 41 -13.2 8.3
13:25 1028 30.36 857 25.31 -1.7 29 41 -13.2 8.3
13:30 1028 30.36 857 25.31 -1.7 29 41 -13.1 8.3
13:35 1028 30.36 857 25.31 -1.9 28.6 43 -12.8 8.9
13:40 1028 30.36 857 25.31 -1.9 28.6 43 -12.8 9
13:45 1028 30.36 857 25.31 -1.9 28.5 44 -12.6 9.3
13:50 1028 30.36 857 25.31 -2 28.4 45 -12.4 9.6
13:55 1028 30.36 857 25.31 -1.9 28.6 46 -12.1 10.2
14:00 1028 30.36 857 25.31 -1.8 28.7 45 -12.2 10
14:05 1028 30.36 857 25.31 -1.9 28.5 45 -12.3 9.9
14:10 1028 30.36 857 25.31 -1.8 28.7 44 -12.5 9.4
14:15 1028 30.36 857 25.31 -2 28.4 45 -12.4 9.7
14:20 1028 30.36 857 25.31 -1.9 28.5 45 -12.3 9.8
14:25 1028 30.36 857 25.31 -2.1 28.3 44 -12.7 9.1
14:30 1028 30.36 858 25.34 -2.1 28.3 43 -13.1 8.4
14:35 1028 30.36 857 25.31 -2.1 28.2 45 -12.6 9.4
14:40 1028 30.36 857 25.31 -1.9 28.5 45 -12.4 9.6
14:45 1028 30.36 858 25.34 -2.1 28.1 46 -12.4 9.7
14:50 1028 30.36 858 25.34 -2.1 28.1 47 -12 10.3
14:55 1028 30.36 857 25.31 -2.1 28.2 45 -12.4 9.7
15:00 1028 30.36 858 25.34 -2.1 28.2 46 -12.3 9.8
15:05 1028 30.36 858 25.34 -2.2 28 46 -12.3 9.9
15:10 1028 30.36 858 25.34 -2.2 28 45 -12.6 9.4
15:15 1029 30.39 858 25.34 -2.3 27.8 45 -12.7 9.1
15:20 1029 30.39 858 25.34 -2.2 28 43 -13.1 8.5
15:25 1029 30.39 858 25.34 -2.2 28.1 43 -13 8.6
15:30 1029 30.39 858 25.34 -2.1 28.3 43 -13 8.7
15:35 1029 30.39 858 25.34 -2.2 28 44 -12.8 8.9
15:40 1029 30.39 858 25.34 -2.2 28.1 43 -13 8.6
15:45 1029 30.39 858 25.34 -2 28.4 43 -12.9 8.9
15:50 1029 30.39 858 25.34 -2 28.4 43 -13 8.6
15:55 1029 30.39 858 25.34 -2.3 27.8 41 -13.7 7.3
16:00 1029 30.39 858 25.34 -2.3 27.8 44 -13 8.7
16:05 1029 30.39 858 25.34 -3.3 26.1 52 -11.8 10.7
16:10 1029 30.39 858 25.34 -3.7 25.4 62 -9.9 14.2
16:15 1029 30.39 858 25.34 -3.9 24.9 63 -10 14
16:20 1029 30.39 858 25.34 -3.9 24.9 63 -10 14
16:25 1029 30.39 858 25.34 -3.8 25.2 64 -9.6 14.8
16:30 1029 30.39 858 25.34 -3.7 25.4 64 -9.5 14.9
16:35 1029 30.39 858 25.34 -3.7 25.4 63 -9.7 14.6
16:40 1029 30.39 858 25.34 -4 24.8 64 -9.9 14.1
16:45 1029 30.39 858 25.34 -3.9 24.9 58 -11.1 12.1
16:50 1029 30.39 858 25.34 -3.4 25.9 55 -11.2 11.8
16:55 1029 30.39 858 25.34 -3.1 26.3 51 -11.9 10.6
17:00 1029 30.39 858 25.34 -3 26.6 48 -12.6 9.3
17:05 1029 30.39 859 25.37 -3.2 26.3 49 -12.5 9.5
17:10 1029 30.39 859 25.37 -3.3 26.1 46 -13.2 8.2
17:15 1029 30.39 859 25.37 -3.5 25.6 47 -13.2 8.2
17:20 1030 30.42 859 25.37 -4 24.9 50 -13 8.5
17:25 1030 30.42 859 25.37 -3.9 24.9 46 -14 6.8
17:30 1030 30.42 859 25.37 -3.9 25 48 -13.4 7.8
17:35 1030 30.42 859 25.37 -3.6 25.5 48 -13.2 8.3
17:40 1030 30.42 859 25.37 -3.5 25.7 47 -13.3 8.1
17:45 1030 30.42 859 25.37 -3.6 25.6 49 -12.9 8.7
17:50 1030 30.42 859 25.37 -3.5 25.6 48 -13 8.6
17:55 1030 30.42 859 25.37 -3.5 25.7 49 -12.8 8.9
18:00 1030 30.42 859 25.37 -3.6 25.6 47 -13.3 8
18:05 1030 30.42 859 25.37 -3.7 25.3 48 -13.2 8.2
18:10 1030 30.42 859 25.37 -4.1 24.6 50 -13.1 8.5
18:15 1030 30.42 859 25.37 -4.1 24.7 51 -12.9 8.8
18:20 1030 30.42 859 25.37 -4.1 24.7 51 -12.7 9.2
18:25 1030 30.42 859 25.37 -4.2 24.5 51 -13 8.6
18:30 1030 30.42 859 25.37 -4.5 23.9 52 -12.9 8.8
18:35 1030 30.42 859 25.37 -4.3 24.2 51 -13.1 8.5
18:40 1030 30.42 859 25.37 -4.2 24.5 50 -13.1 8.5
18:45 1030 30.42 859 25.37 -4.3 24.3 51 -13 8.6
18:50 1030 30.42 859 25.37 -4.4 24.2 52 -12.9 8.8
18:55 1030 30.42 859 25.37 -4.4 24 53 -12.6 9.4
19:00 1030 30.42 859 25.37 -4.5 23.8 52 -13 8.5
19:05 1030 30.42 859 25.37 -4.6 23.8 51 -13.2 8.3
19:10 1030 30.42 859 25.37 -4.6 23.8 50 -13.5 7.7
19:15 1030 30.42 859 25.37 -4.6 23.7 50 -13.6 7.4
19:20 1030 30.42 859 25.37 -4.7 23.5 50 -13.7 7.4
19:25 1030 30.42 859 25.37 -4.8 23.4 50 -13.6 7.6
19:30 1030 30.42 859 25.37 -4.8 23.3 50 -13.6 7.5
19:35 1030 30.42 860 25.4 -4.9 23.2 51 -13.5 7.7
19:40 1030 30.42 860 25.4 -4.9 23.1 51 -13.6 7.5
19:45 1031 30.45 860 25.4 -5 22.9 51 -13.8 7.2
19:50 1031 30.45 860 25.4 -5.1 22.9 50 -13.9 7
19:55 1031 30.45 860 25.4 -5.2 22.7 50 -14.1 6.7
20:00 1031 30.45 860 25.4 -5.1 22.7 51 -13.7 7.3
20:05 1031 30.45 860 25.4 -5.3 22.5 54 -13.2 8.2
20:10 1031 30.45 860 25.4 -5.4 22.2 55 -13.1 8.4
20:15 1031 30.45 860 25.4 -5.5 22.1 56 -13 8.6
20:20 1031 30.45 860 25.4 -5.4 22.2 56 -12.8 8.9
20:25 1031 30.45 860 25.4 -5.5 22.1 57 -12.7 9.2
20:30 1031 30.45 860 25.4 -5.6 22 56 -12.9 8.7
20:35 1031 30.45 860 25.4 -5.6 22 56 -13 8.6
20:40 1031 30.45 860 25.4 -5.6 21.9 56 -13.1 8.5
20:45 1031 30.45 860 25.4 -5.6 22 56 -13.1 8.5
20:50 1031 30.45 860 25.4 -5.6 21.9 55 -13.2 8.3
20:55 1031 30.45 860 25.4 -5.6 21.9 56 -13.1 8.5
21:00 1031 30.45 860 25.4 -5.7 21.8 56 -13.1 8.4
21:05 1031 30.45 860 25.4 -5.7 21.7 58 -12.8 8.9
21:10 1031 30.45 860 25.4 -5.9 21.5 59 -12.6 9.3
21:15 1031 30.45 860 25.4 -6.1 21.1 59 -12.8 8.9
21:20 1031 30.45 860 25.4 -6.1 20.9 60 -12.7 9.2
21:25 1031 30.45 860 25.4 -6.2 20.8 61 -12.5 9.4
21:30 1031 30.45 860 25.4 -6.3 20.6 62 -12.4 9.6
21:35 1031 30.45 860 25.4 -6.4 20.4 63 -12.4 9.7
21:40 1031 30.45 860 25.4 -6.5 20.2 63 -12.5 9.5
21:45 1031 30.45 860 25.4 -6.4 20.4 61 -12.9 8.9
21:50 1031 30.45 860 25.4 -6.4 20.4 62 -12.5 9.5
21:55 1031 30.45 860 25.4 -6.6 20.1 64 -12.4 9.7
22:00 1031 30.45 861 25.43 -6.7 20 63 -12.6 9.4
22:05 1031 30.45 861 25.43 -6.7 19.9 64 -12.4 9.6
22:10 1031 30.45 861 25.43 -6.7 19.9 63 -12.6 9.3
22:15 1031 30.45 861 25.43 -7.4 18.6 66 -12.7 9.2
22:20 1032 30.47 861 25.43 -7.7 18.1 67 -12.7 9.1
22:25 1032 30.47 861 25.43 -7.4 18.6 66 -12.7 9.1
22:30 1032 30.47 861 25.43 -7.2 19 66 -12.6 9.4
22:35 1032 30.47 861 25.43 -7.1 19.1 66 -12.5 9.5
22:40 1032 30.47 861 25.43 -7.2 19.1 66 -12.4 9.6
22:45 1032 30.47 861 25.43 -7.5 18.6 68 -12.3 9.8
22:50 1032 30.47 861 25.43 -7.7 18.2 69 -12.5 9.5
22:55 1032 30.47 861 25.43 -7.9 17.8 70 -12.5 9.5
23:00 1032 30.47 861 25.43 -8.1 17.4 71 -12.5 9.5
23:05 1032 30.47 861 25.43 -8 17.6 69 -12.7 9.1
23:10 1032 30.47 861 25.43 -8.2 17.3 69 -12.8 9
23:15 1032 30.47 861 25.43 -8.2 17.3 69 -12.8 8.9
23:20 1032 30.47 861 25.43 -7.9 17.8 69 -12.7 9.1
23:25 1032 30.47 861 25.43 -7.7 18.1 68 -12.6 9.3
23:30 1032 30.47 861 25.43 -7.8 18 69 -12.6 9.3
23:35 1032 30.47 861 25.43 -7.9 17.8 69 -12.7 9.1
23:40 1032 30.47 861 25.43 -8.3 17.1 70 -12.8 8.9
23:45 1032 30.47 861 25.43 -8.8 16.2 71 -13.1 8.4
23:50 1032 30.47 861 25.43 -8.7 16.4 70 -13.2 8.3
23:55 1032 30.47 861 25.43 -8.4 16.9 70 -13 8.6
24:00 1032 30.47 861 25.43 -8.4 16.8 70 -13.1 8.5